sensor_id;sensor_type;location;lat;lon;timestamp;temperature;humidity
20690;DHT22;10504;48.762;8.996;2022-07-29T00:00:01;19.30;99.90
20690;DHT22;10504;48.762;8.996;2022-07-29T00:02:27;19.40;99.90
20690;DHT22;10504;48.762;8.996;2022-07-29T00:04:53;19.30;99.90
20690;DHT22;10504;48.762;8.996;2022-07-29T00:07:19;19.40;99.90
20690;DHT22;10504;48.762;8.996;2022-07-29T00:09:45;19.30;99.90
20690;DHT22;10504;48.762;8.996;2022-07-29T00:12:11;19.30;99.90
20690;DHT22;10504;48.762;8.996;2022-07-29T00:14:36;19.30;99.90
20690;DHT22;10504;48.762;8.996;2022-07-29T00:17:02;19.20;99.90
20690;DHT22;10504;48.762;8.996;2022-07-29T00:19:28;19.20;99.90
20690;DHT22;10504;48.762;8.996;2022-07-29T00:21:54;19.20;99.90
20690;DHT22;10504;48.762;8.996;2022-07-29T00:24:19;19.20;99.90
20690;DHT22;10504;48.762;8.996;2022-07-29T00:26:45;19.10;99.90
20690;DHT22;10504;48.762;8.996;2022-07-29T00:29:11;19.10;99.90
20690;DHT22;10504;48.762;8.996;2022-07-29T00:31:36;19.10;99.90
20690;DHT22;10504;48.762;8.996;2022-07-29T00:34:02;19.10;99.90
20690;DHT22;10504;48.762;8.996;2022-07-29T00:36:28;19.00;99.90
20690;DHT22;10504;48.762;8.996;2022-07-29T00:38:54;19.00;99.90
20690;DHT22;10504;48.762;8.996;2022-07-29T00:41:20;19.00;99.90
20690;DHT22;10504;48.762;8.996;2022-07-29T00:43:46;18.90;99.90
20690;DHT22;10504;48.762;8.996;2022-07-29T00:46:11;18.90;99.90
20690;DHT22;10504;48.762;8.996;2022-07-29T00:48:37;18.90;99.90
20690;DHT22;10504;48.762;8.996;2022-07-29T00:51:05;18.90;99.90
20690;DHT22;10504;48.762;8.996;2022-07-29T00:53:31;18.90;99.90
20690;DHT22;10504;48.762;8.996;2022-07-29T00:55:58;18.90;99.90
20690;DHT22;10504;48.762;8.996;2022-07-29T00:58:24;18.90;99.90
20690;DHT22;10504;48.762;8.996;2022-07-29T01:00:52;18.90;99.90
20690;DHT22;10504;48.762;8.996;2022-07-29T01:03:18;18.90;99.90
20690;DHT22;10504;48.762;8.996;2022-07-29T01:05:45;18.90;99.90
20690;DHT22;10504;48.762;8.996;2022-07-29T01:08:12;18.90;99.90
20690;DHT22;10504;48.762;8.996;2022-07-29T01:10:39;18.80;99.90
20690;DHT22;10504;48.762;8.996;2022-07-29T01:13:07;18.90;99.90
20690;DHT22;10504;48.762;8.996;2022-07-29T01:15:39;18.90;99.90
20690;DHT22;10504;48.762;8.996;2022-07-29T01:18:18;18.90;99.90
20690;DHT22;10504;48.762;8.996;2022-07-29T01:20:57;18.90;99.90
20690;DHT22;10504;48.762;8.996;2022-07-29T01:31:22;18.80;99.90
20690;DHT22;10504;48.762;8.996;2022-07-29T01:33:58;18.80;99.90
20690;DHT22;10504;48.762;8.996;2022-07-29T01:36:33;18.80;99.90
20690;DHT22;10504;48.762;8.996;2022-07-29T01:39:11;18.80;99.90
20690;DHT22;10504;48.762;8.996;2022-07-29T01:41:42;18.80;99.90
20690;DHT22;10504;48.762;8.996;2022-07-29T01:44:22;18.80;99.90
20690;DHT22;10504;48.762;8.996;2022-07-29T01:46:55;18.80;99.90
20690;DHT22;10504;48.762;8.996;2022-07-29T01:49:33;18.70;99.90
20690;DHT22;10504;48.762;8.996;2022-07-29T01:52:05;18.80;99.90
20690;DHT22;10504;48.762;8.996;2022-07-29T01:54:39;18.80;99.90
20690;DHT22;10504;48.762;8.996;2022-07-29T01:57:09;18.80;99.90
20690;DHT22;10504;48.762;8.996;2022-07-29T01:59:37;18.80;99.90
20690;DHT22;10504;48.762;8.996;2022-07-29T02:02:04;18.80;99.90
20690;DHT22;10504;48.762;8.996;2022-07-29T02:04:32;18.80;99.90
20690;DHT22;10504;48.762;8.996;2022-07-29T02:07:02;18.80;99.90
20690;DHT22;10504;48.762;8.996;2022-07-29T02:09:30;18.80;99.90
20690;DHT22;10504;48.762;8.996;2022-07-29T02:11:57;18.80;99.90
20690;DHT22;10504;48.762;8.996;2022-07-29T02:14:24;18.80;99.90
20690;DHT22;10504;48.762;8.996;2022-07-29T02:16:54;18.80;99.90
20690;DHT22;10504;48.762;8.996;2022-07-29T02:19:23;18.80;99.90
20690;DHT22;10504;48.762;8.996;2022-07-29T02:21:51;18.80;99.90
20690;DHT22;10504;48.762;8.996;2022-07-29T02:24:20;18.90;99.90
20690;DHT22;10504;48.762;8.996;2022-07-29T02:26:47;18.80;99.90
20690;DHT22;10504;48.762;8.996;2022-07-29T02:29:15;18.80;99.90
20690;DHT22;10504;48.762;8.996;2022-07-29T02:31:43;18.80;99.90
20690;DHT22;10504;48.762;8.996;2022-07-29T02:34:10;18.80;99.90
20690;DHT22;10504;48.762;8.996;2022-07-29T02:36:37;18.80;99.90
20690;DHT22;10504;48.762;8.996;2022-07-29T02:39:04;18.80;99.90
20690;DHT22;10504;48.762;8.996;2022-07-29T02:41:49;18.80;99.90
20690;DHT22;10504;48.762;8.996;2022-07-29T02:44:22;18.80;99.90
20690;DHT22;10504;48.762;8.996;2022-07-29T02:46:53;18.80;99.90
20690;DHT22;10504;48.762;8.996;2022-07-29T02:49:59;18.80;99.90
20690;DHT22;10504;48.762;8.996;2022-07-29T02:52:44;18.80;99.90
20690;DHT22;10504;48.762;8.996;2022-07-29T02:55:32;18.80;99.90
20690;DHT22;10504;48.762;8.996;2022-07-29T03:00:37;18.80;99.90
20690;DHT22;10504;48.762;8.996;2022-07-29T03:03:05;18.80;99.90
20690;DHT22;10504;48.762;8.996;2022-07-29T03:05:32;18.80;99.90
20690;DHT22;10504;48.762;8.996;2022-07-29T03:08:02;18.80;99.90
20690;DHT22;10504;48.762;8.996;2022-07-29T03:10:30;18.80;99.90
20690;DHT22;10504;48.762;8.996;2022-07-29T03:12:57;18.80;99.90
20690;DHT22;10504;48.762;8.996;2022-07-29T03:15:23;18.70;99.90
20690;DHT22;10504;48.762;8.996;2022-07-29T03:17:51;18.70;99.90
20690;DHT22;10504;48.762;8.996;2022-07-29T03:20:17;18.70;99.90
20690;DHT22;10504;48.762;8.996;2022-07-29T03:22:43;18.70;99.90
20690;DHT22;10504;48.762;8.996;2022-07-29T03:25:15;18.60;99.90
20690;DHT22;10504;48.762;8.996;2022-07-29T03:27:42;18.60;99.90
20690;DHT22;10504;48.762;8.996;2022-07-29T03:30:09;18.70;99.90
20690;DHT22;10504;48.762;8.996;2022-07-29T03:32:35;18.60;99.90
20690;DHT22;10504;48.762;8.996;2022-07-29T03:35:02;18.60;99.90
20690;DHT22;10504;48.762;8.996;2022-07-29T03:37:28;18.50;99.90
20690;DHT22;10504;48.762;8.996;2022-07-29T03:39:57;18.50;99.90
20690;DHT22;10504;48.762;8.996;2022-07-29T03:42:25;18.40;99.90
20690;DHT22;10504;48.762;8.996;2022-07-29T03:44:52;18.40;99.90
20690;DHT22;10504;48.762;8.996;2022-07-29T03:47:22;18.40;99.90
20690;DHT22;10504;48.762;8.996;2022-07-29T03:49:50;18.40;99.90
20690;DHT22;10504;48.762;8.996;2022-07-29T03:52:18;18.40;99.90
20690;DHT22;10504;48.762;8.996;2022-07-29T03:54:44;18.30;99.90
20690;DHT22;10504;48.762;8.996;2022-07-29T03:57:11;18.30;99.90
20690;DHT22;10504;48.762;8.996;2022-07-29T03:59:37;18.30;99.90
20690;DHT22;10504;48.762;8.996;2022-07-29T04:02:05;18.30;99.90
20690;DHT22;10504;48.762;8.996;2022-07-29T04:04:34;18.20;99.90
20690;DHT22;10504;48.762;8.996;2022-07-29T04:07:00;18.20;99.90
20690;DHT22;10504;48.762;8.996;2022-07-29T04:09:26;18.20;99.90
20690;DHT22;10504;48.762;8.996;2022-07-29T04:11:52;18.20;99.90
20690;DHT22;10504;48.762;8.996;2022-07-29T04:14:18;18.20;99.90
20690;DHT22;10504;48.762;8.996;2022-07-29T04:16:44;18.20;99.90
20690;DHT22;10504;48.762;8.996;2022-07-29T04:19:09;18.20;99.90
20690;DHT22;10504;48.762;8.996;2022-07-29T04:21:39;18.20;99.90
20690;DHT22;10504;48.762;8.996;2022-07-29T04:24:05;18.20;99.90
20690;DHT22;10504;48.762;8.996;2022-07-29T04:26:32;18.20;99.90
20690;DHT22;10504;48.762;8.996;2022-07-29T04:28:58;18.20;99.90
20690;DHT22;10504;48.762;8.996;2022-07-29T04:31:24;18.20;99.90
20690;DHT22;10504;48.762;8.996;2022-07-29T04:33:49;18.20;99.90
20690;DHT22;10504;48.762;8.996;2022-07-29T04:36:15;18.20;99.90
20690;DHT22;10504;48.762;8.996;2022-07-29T04:38:41;18.20;99.90
20690;DHT22;10504;48.762;8.996;2022-07-29T04:41:06;18.20;99.90
20690;DHT22;10504;48.762;8.996;2022-07-29T04:43:34;18.20;99.90
20690;DHT22;10504;48.762;8.996;2022-07-29T04:46:00;18.20;99.90
20690;DHT22;10504;48.762;8.996;2022-07-29T04:48:26;18.20;99.90
20690;DHT22;10504;48.762;8.996;2022-07-29T04:50:53;18.30;99.90
20690;DHT22;10504;48.762;8.996;2022-07-29T04:53:18;18.30;99.90
20690;DHT22;10504;48.762;8.996;2022-07-29T04:55:44;18.30;99.90
20690;DHT22;10504;48.762;8.996;2022-07-29T04:58:11;18.30;99.90
20690;DHT22;10504;48.762;8.996;2022-07-29T05:00:36;18.30;99.90
20690;DHT22;10504;48.762;8.996;2022-07-29T05:03:03;18.30;99.90
20690;DHT22;10504;48.762;8.996;2022-07-29T05:05:29;18.30;99.90
20690;DHT22;10504;48.762;8.996;2022-07-29T05:07:54;18.40;99.90
20690;DHT22;10504;48.762;8.996;2022-07-29T05:10:21;18.40;99.90
20690;DHT22;10504;48.762;8.996;2022-07-29T05:12:46;18.40;99.90
20690;DHT22;10504;48.762;8.996;2022-07-29T05:15:12;18.40;99.90
20690;DHT22;10504;48.762;8.996;2022-07-29T05:17:38;18.50;99.90
20690;DHT22;10504;48.762;8.996;2022-07-29T05:20:05;18.50;99.90
20690;DHT22;10504;48.762;8.996;2022-07-29T05:22:30;18.60;99.90
20690;DHT22;10504;48.762;8.996;2022-07-29T05:24:56;18.60;99.90
20690;DHT22;10504;48.762;8.996;2022-07-29T05:27:22;18.60;99.90
20690;DHT22;10504;48.762;8.996;2022-07-29T05:29:47;18.60;99.90
20690;DHT22;10504;48.762;8.996;2022-07-29T05:32:13;18.70;99.90
20690;DHT22;10504;48.762;8.996;2022-07-29T05:34:40;18.70;99.90
20690;DHT22;10504;48.762;8.996;2022-07-29T05:37:05;18.70;99.90
20690;DHT22;10504;48.762;8.996;2022-07-29T05:39:31;18.80;99.90
20690;DHT22;10504;48.762;8.996;2022-07-29T05:41:57;18.80;99.90
20690;DHT22;10504;48.762;8.996;2022-07-29T05:44:23;18.80;99.90
20690;DHT22;10504;48.762;8.996;2022-07-29T05:46:48;18.90;99.90
20690;DHT22;10504;48.762;8.996;2022-07-29T05:49:14;18.90;99.90
20690;DHT22;10504;48.762;8.996;2022-07-29T05:51:40;18.90;99.90
20690;DHT22;10504;48.762;8.996;2022-07-29T05:54:06;19.00;99.90
20690;DHT22;10504;48.762;8.996;2022-07-29T05:56:31;19.00;99.90
20690;DHT22;10504;48.762;8.996;2022-07-29T05:58:57;19.00;99.90
20690;DHT22;10504;48.762;8.996;2022-07-29T06:01:24;19.10;99.90
20690;DHT22;10504;48.762;8.996;2022-07-29T06:03:49;19.10;99.90
20690;DHT22;10504;48.762;8.996;2022-07-29T06:06:15;19.10;99.90
20690;DHT22;10504;48.762;8.996;2022-07-29T06:08:41;19.20;99.90
20690;DHT22;10504;48.762;8.996;2022-07-29T06:11:06;19.20;99.90
20690;DHT22;10504;48.762;8.996;2022-07-29T06:13:34;19.30;99.90
20690;DHT22;10504;48.762;8.996;2022-07-29T06:16:00;19.30;99.90
20690;DHT22;10504;48.762;8.996;2022-07-29T06:18:26;19.40;99.90
20690;DHT22;10504;48.762;8.996;2022-07-29T06:20:52;19.40;99.90
20690;DHT22;10504;48.762;8.996;2022-07-29T06:23:19;19.50;99.90
20690;DHT22;10504;48.762;8.996;2022-07-29T06:25:45;19.60;99.90
20690;DHT22;10504;48.762;8.996;2022-07-29T06:28:11;19.60;99.90
20690;DHT22;10504;48.762;8.996;2022-07-29T06:30:37;19.60;99.90
20690;DHT22;10504;48.762;8.996;2022-07-29T06:33:03;19.70;99.90
20690;DHT22;10504;48.762;8.996;2022-07-29T06:35:29;19.70;99.90
20690;DHT22;10504;48.762;8.996;2022-07-29T06:37:55;19.70;99.90
20690;DHT22;10504;48.762;8.996;2022-07-29T06:40:20;19.70;99.90
20690;DHT22;10504;48.762;8.996;2022-07-29T06:43:05;19.70;99.90
20690;DHT22;10504;48.762;8.996;2022-07-29T06:45:33;19.70;99.90
20690;DHT22;10504;48.762;8.996;2022-07-29T06:47:59;19.70;99.90
20690;DHT22;10504;48.762;8.996;2022-07-29T06:50:25;19.70;99.90
20690;DHT22;10504;48.762;8.996;2022-07-29T06:52:51;19.70;99.90
20690;DHT22;10504;48.762;8.996;2022-07-29T06:55:16;19.80;99.90
20690;DHT22;10504;48.762;8.996;2022-07-29T06:57:45;19.80;99.90
20690;DHT22;10504;48.762;8.996;2022-07-29T07:00:12;19.90;99.90
20690;DHT22;10504;48.762;8.996;2022-07-29T07:02:38;19.90;99.90
20690;DHT22;10504;48.762;8.996;2022-07-29T07:05:04;20.00;99.90
20690;DHT22;10504;48.762;8.996;2022-07-29T07:07:31;20.00;99.90
20690;DHT22;10504;48.762;8.996;2022-07-29T07:09:57;20.10;99.90
20690;DHT22;10504;48.762;8.996;2022-07-29T07:12:22;20.10;99.90
20690;DHT22;10504;48.762;8.996;2022-07-29T07:14:48;20.10;99.90
20690;DHT22;10504;48.762;8.996;2022-07-29T07:17:14;20.20;99.90
20690;DHT22;10504;48.762;8.996;2022-07-29T07:19:40;20.20;99.90
20690;DHT22;10504;48.762;8.996;2022-07-29T07:22:05;20.20;99.90
20690;DHT22;10504;48.762;8.996;2022-07-29T07:24:31;20.20;99.90
20690;DHT22;10504;48.762;8.996;2022-07-29T07:26:57;20.30;99.90
20690;DHT22;10504;48.762;8.996;2022-07-29T07:29:23;20.30;99.90
20690;DHT22;10504;48.762;8.996;2022-07-29T07:31:48;20.30;99.90
20690;DHT22;10504;48.762;8.996;2022-07-29T07:34:14;20.30;99.90
20690;DHT22;10504;48.762;8.996;2022-07-29T07:36:40;20.40;99.90
20690;DHT22;10504;48.762;8.996;2022-07-29T07:39:06;20.50;99.90
20690;DHT22;10504;48.762;8.996;2022-07-29T07:41:31;20.60;99.90
20690;DHT22;10504;48.762;8.996;2022-07-29T07:43:57;20.60;99.90
20690;DHT22;10504;48.762;8.996;2022-07-29T07:46:23;20.60;99.90
20690;DHT22;10504;48.762;8.996;2022-07-29T07:48:48;20.60;99.90
20690;DHT22;10504;48.762;8.996;2022-07-29T07:51:14;20.60;99.90
20690;DHT22;10504;48.762;8.996;2022-07-29T07:53:40;20.70;99.90
20690;DHT22;10504;48.762;8.996;2022-07-29T07:56:06;20.70;99.90
20690;DHT22;10504;48.762;8.996;2022-07-29T07:58:32;20.80;99.90
20690;DHT22;10504;48.762;8.996;2022-07-29T08:00:58;20.80;99.90
20690;DHT22;10504;48.762;8.996;2022-07-29T08:03:24;20.90;99.90
20690;DHT22;10504;48.762;8.996;2022-07-29T08:05:49;20.90;99.90
20690;DHT22;10504;48.762;8.996;2022-07-29T08:08:17;20.90;99.90
20690;DHT22;10504;48.762;8.996;2022-07-29T08:10:43;20.90;99.90
20690;DHT22;10504;48.762;8.996;2022-07-29T08:13:18;20.90;99.90
20690;DHT22;10504;48.762;8.996;2022-07-29T08:15:44;20.90;99.90
20690;DHT22;10504;48.762;8.996;2022-07-29T08:18:12;20.90;99.90
20690;DHT22;10504;48.762;8.996;2022-07-29T08:20:38;20.90;99.90
20690;DHT22;10504;48.762;8.996;2022-07-29T08:23:06;20.90;99.90
20690;DHT22;10504;48.762;8.996;2022-07-29T08:25:36;21.00;99.90
20690;DHT22;10504;48.762;8.996;2022-07-29T08:28:01;21.00;99.90
20690;DHT22;10504;48.762;8.996;2022-07-29T08:30:27;21.10;99.90
20690;DHT22;10504;48.762;8.996;2022-07-29T08:32:53;21.20;99.90
20690;DHT22;10504;48.762;8.996;2022-07-29T08:35:20;21.20;99.90
20690;DHT22;10504;48.762;8.996;2022-07-29T08:37:46;21.20;99.90
20690;DHT22;10504;48.762;8.996;2022-07-29T08:40:12;21.10;99.90
20690;DHT22;10504;48.762;8.996;2022-07-29T08:42:38;21.10;99.90
20690;DHT22;10504;48.762;8.996;2022-07-29T08:45:04;21.10;99.90
20690;DHT22;10504;48.762;8.996;2022-07-29T08:47:30;21.10;99.90
20690;DHT22;10504;48.762;8.996;2022-07-29T08:49:56;21.10;99.90
20690;DHT22;10504;48.762;8.996;2022-07-29T08:52:25;21.20;99.90
20690;DHT22;10504;48.762;8.996;2022-07-29T08:54:52;21.20;99.90
20690;DHT22;10504;48.762;8.996;2022-07-29T08:57:19;21.30;99.90
20690;DHT22;10504;48.762;8.996;2022-07-29T08:59:46;21.30;99.90
20690;DHT22;10504;48.762;8.996;2022-07-29T09:02:19;21.30;99.90
20690;DHT22;10504;48.762;8.996;2022-07-29T09:04:45;21.30;99.90
20690;DHT22;10504;48.762;8.996;2022-07-29T09:07:17;21.30;99.90
20690;DHT22;10504;48.762;8.996;2022-07-29T09:09:43;21.40;99.90
20690;DHT22;10504;48.762;8.996;2022-07-29T09:12:12;21.50;99.90
20690;DHT22;10504;48.762;8.996;2022-07-29T09:14:40;21.60;99.90
20690;DHT22;10504;48.762;8.996;2022-07-29T09:17:06;21.70;99.90
20690;DHT22;10504;48.762;8.996;2022-07-29T09:19:36;21.80;99.90
20690;DHT22;10504;48.762;8.996;2022-07-29T09:22:06;21.80;99.90
20690;DHT22;10504;48.762;8.996;2022-07-29T09:30:09;22.10;99.90
20690;DHT22;10504;48.762;8.996;2022-07-29T09:32:57;22.20;99.90
20690;DHT22;10504;48.762;8.996;2022-07-29T09:35:25;22.20;99.90
20690;DHT22;10504;48.762;8.996;2022-07-29T09:37:51;22.30;99.90
20690;DHT22;10504;48.762;8.996;2022-07-29T09:40:27;22.30;99.90
20690;DHT22;10504;48.762;8.996;2022-07-29T09:42:54;22.40;99.90
20690;DHT22;10504;48.762;8.996;2022-07-29T09:45:31;22.30;99.90
20690;DHT22;10504;48.762;8.996;2022-07-29T09:47:58;22.30;99.90
20690;DHT22;10504;48.762;8.996;2022-07-29T09:50:55;22.30;99.90
20690;DHT22;10504;48.762;8.996;2022-07-29T09:53:35;22.30;99.90
20690;DHT22;10504;48.762;8.996;2022-07-29T09:56:01;22.30;99.90
20690;DHT22;10504;48.762;8.996;2022-07-29T09:58:27;22.30;99.90
20690;DHT22;10504;48.762;8.996;2022-07-29T10:00:54;22.30;99.90
20690;DHT22;10504;48.762;8.996;2022-07-29T10:03:21;22.30;99.90
20690;DHT22;10504;48.762;8.996;2022-07-29T10:06:07;22.30;99.90
20690;DHT22;10504;48.762;8.996;2022-07-29T10:08:33;22.20;99.90
20690;DHT22;10504;48.762;8.996;2022-07-29T10:11:18;22.20;99.90
20690;DHT22;10504;48.762;8.996;2022-07-29T10:13:46;22.00;99.90
20690;DHT22;10504;48.762;8.996;2022-07-29T10:16:13;21.80;99.90
20690;DHT22;10504;48.762;8.996;2022-07-29T10:18:40;21.60;99.90
20690;DHT22;10504;48.762;8.996;2022-07-29T10:21:06;21.50;99.90
20690;DHT22;10504;48.762;8.996;2022-07-29T10:23:33;21.30;99.90
20690;DHT22;10504;48.762;8.996;2022-07-29T10:26:00;21.30;99.90
20690;DHT22;10504;48.762;8.996;2022-07-29T10:28:26;21.10;99.90
20690;DHT22;10504;48.762;8.996;2022-07-29T10:31:05;21.00;99.90
20690;DHT22;10504;48.762;8.996;2022-07-29T10:36:52;20.30;99.90
20690;DHT22;10504;48.762;8.996;2022-07-29T10:39:50;20.00;99.90
20690;DHT22;10504;48.762;8.996;2022-07-29T10:42:25;19.70;99.90
20690;DHT22;10504;48.762;8.996;2022-07-29T10:44:53;19.40;99.90
20690;DHT22;10504;48.762;8.996;2022-07-29T10:47:24;19.20;99.90
20690;DHT22;10504;48.762;8.996;2022-07-29T10:49:56;19.20;99.90
20690;DHT22;10504;48.762;8.996;2022-07-29T10:52:22;19.10;99.90
20690;DHT22;10504;48.762;8.996;2022-07-29T10:54:50;19.00;99.90
20690;DHT22;10504;48.762;8.996;2022-07-29T10:59:49;18.80;99.90
20690;DHT22;10504;48.762;8.996;2022-07-29T11:05:05;18.90;99.90
20690;DHT22;10504;48.762;8.996;2022-07-29T11:07:32;18.80;99.90
20690;DHT22;10504;48.762;8.996;2022-07-29T11:15:13;18.80;99.90
20690;DHT22;10504;48.762;8.996;2022-07-29T11:20:46;18.90;99.90
20690;DHT22;10504;48.762;8.996;2022-07-29T11:23:31;19.00;99.90
20690;DHT22;10504;48.762;8.996;2022-07-29T11:29:28;19.20;99.90
20690;DHT22;10504;48.762;8.996;2022-07-29T11:31:51;19.20;99.90
20690;DHT22;10504;48.762;8.996;2022-07-29T11:34:31;19.20;99.90
20690;DHT22;10504;48.762;8.996;2022-07-29T11:45:14;19.80;99.90
20690;DHT22;10504;48.762;8.996;2022-07-29T11:47:48;20.00;99.90
20690;DHT22;10504;48.762;8.996;2022-07-29T11:50:29;20.10;99.90
20690;DHT22;10504;48.762;8.996;2022-07-29T11:53:16;20.20;99.90
20690;DHT22;10504;48.762;8.996;2022-07-29T11:55:54;20.30;99.90
20690;DHT22;10504;48.762;8.996;2022-07-29T12:28:07;19.80;99.90
20690;DHT22;10504;48.762;8.996;2022-07-29T12:41:16;19.70;99.90
20690;DHT22;10504;48.762;8.996;2022-07-29T12:44:24;19.70;99.90
20690;DHT22;10504;48.762;8.996;2022-07-29T12:47:07;19.70;99.90
20690;DHT22;10504;48.762;8.996;2022-07-29T12:49:40;19.70;99.90
20690;DHT22;10504;48.762;8.996;2022-07-29T12:52:29;19.60;99.90
20690;DHT22;10504;48.762;8.996;2022-07-29T12:54:56;19.60;99.90
20690;DHT22;10504;48.762;8.996;2022-07-29T12:57:22;19.60;99.90
20690;DHT22;10504;48.762;8.996;2022-07-29T13:00:05;19.60;99.90
20690;DHT22;10504;48.762;8.996;2022-07-29T13:02:33;19.60;99.90
20690;DHT22;10504;48.762;8.996;2022-07-29T13:05:01;19.50;99.90
20690;DHT22;10504;48.762;8.996;2022-07-29T13:07:32;19.50;99.90
20690;DHT22;10504;48.762;8.996;2022-07-29T13:10:15;19.40;99.90
20690;DHT22;10504;48.762;8.996;2022-07-29T13:13:10;19.30;99.90
20690;DHT22;10504;48.762;8.996;2022-07-29T13:15:44;19.20;99.90
20690;DHT22;10504;48.762;8.996;2022-07-29T13:18:32;19.10;99.90
20690;DHT22;10504;48.762;8.996;2022-07-29T13:21:11;19.10;99.90
20690;DHT22;10504;48.762;8.996;2022-07-29T13:23:37;19.10;99.90
20690;DHT22;10504;48.762;8.996;2022-07-29T13:26:07;19.10;99.90
20690;DHT22;10504;48.762;8.996;2022-07-29T13:28:33;19.10;99.90
20690;DHT22;10504;48.762;8.996;2022-07-29T13:31:00;19.20;99.90
20690;DHT22;10504;48.762;8.996;2022-07-29T13:33:25;19.40;99.90
20690;DHT22;10504;48.762;8.996;2022-07-29T13:35:51;19.60;99.90
20690;DHT22;10504;48.762;8.996;2022-07-29T13:38:17;19.80;99.90
20690;DHT22;10504;48.762;8.996;2022-07-29T13:40:42;20.00;99.90
20690;DHT22;10504;48.762;8.996;2022-07-29T13:43:09;20.30;99.90
20690;DHT22;10504;48.762;8.996;2022-07-29T13:45:35;20.50;99.90
20690;DHT22;10504;48.762;8.996;2022-07-29T13:48:02;20.60;99.90
20690;DHT22;10504;48.762;8.996;2022-07-29T13:50:27;20.70;99.90
20690;DHT22;10504;48.762;8.996;2022-07-29T13:52:53;20.80;99.90
20690;DHT22;10504;48.762;8.996;2022-07-29T13:55:19;20.80;99.90
20690;DHT22;10504;48.762;8.996;2022-07-29T13:57:45;20.80;99.90
20690;DHT22;10504;48.762;8.996;2022-07-29T14:00:11;20.80;99.90
20690;DHT22;10504;48.762;8.996;2022-07-29T14:02:38;20.80;99.90
20690;DHT22;10504;48.762;8.996;2022-07-29T14:05:05;20.90;99.90
20690;DHT22;10504;48.762;8.996;2022-07-29T14:07:30;20.90;99.90
20690;DHT22;10504;48.762;8.996;2022-07-29T14:09:56;20.90;99.90
20690;DHT22;10504;48.762;8.996;2022-07-29T14:12:22;20.80;99.90
20690;DHT22;10504;48.762;8.996;2022-07-29T14:14:48;20.90;99.90
20690;DHT22;10504;48.762;8.996;2022-07-29T14:17:14;21.00;99.90
20690;DHT22;10504;48.762;8.996;2022-07-29T14:19:41;21.00;99.90
20690;DHT22;10504;48.762;8.996;2022-07-29T14:22:08;21.00;99.90
20690;DHT22;10504;48.762;8.996;2022-07-29T14:24:37;21.10;99.90
20690;DHT22;10504;48.762;8.996;2022-07-29T14:27:03;21.10;99.90
20690;DHT22;10504;48.762;8.996;2022-07-29T14:29:29;21.20;99.90
20690;DHT22;10504;48.762;8.996;2022-07-29T14:31:55;21.20;99.90
20690;DHT22;10504;48.762;8.996;2022-07-29T14:34:20;21.20;99.90
20690;DHT22;10504;48.762;8.996;2022-07-29T14:36:46;21.30;99.90
20690;DHT22;10504;48.762;8.996;2022-07-29T14:39:12;21.30;99.90
20690;DHT22;10504;48.762;8.996;2022-07-29T14:41:38;21.30;99.90
20690;DHT22;10504;48.762;8.996;2022-07-29T14:44:03;21.30;99.90
20690;DHT22;10504;48.762;8.996;2022-07-29T14:46:29;21.30;99.90
20690;DHT22;10504;48.762;8.996;2022-07-29T14:48:55;21.40;99.90
20690;DHT22;10504;48.762;8.996;2022-07-29T14:51:21;21.40;99.90
20690;DHT22;10504;48.762;8.996;2022-07-29T14:53:48;21.50;99.90
20690;DHT22;10504;48.762;8.996;2022-07-29T14:56:13;21.50;99.90
20690;DHT22;10504;48.762;8.996;2022-07-29T14:58:39;21.50;99.90
20690;DHT22;10504;48.762;8.996;2022-07-29T15:01:05;21.50;99.90
20690;DHT22;10504;48.762;8.996;2022-07-29T15:03:31;21.50;99.90
20690;DHT22;10504;48.762;8.996;2022-07-29T15:05:57;21.50;99.90
20690;DHT22;10504;48.762;8.996;2022-07-29T15:08:22;21.50;99.90
20690;DHT22;10504;48.762;8.996;2022-07-29T15:10:48;21.50;99.90
20690;DHT22;10504;48.762;8.996;2022-07-29T15:13:14;21.50;99.90
20690;DHT22;10504;48.762;8.996;2022-07-29T15:15:40;21.40;99.90
20690;DHT22;10504;48.762;8.996;2022-07-29T15:18:06;21.40;99.90
20690;DHT22;10504;48.762;8.996;2022-07-29T15:20:32;21.40;99.90
20690;DHT22;10504;48.762;8.996;2022-07-29T15:22:58;21.40;99.90
20690;DHT22;10504;48.762;8.996;2022-07-29T15:25:24;21.40;99.90
20690;DHT22;10504;48.762;8.996;2022-07-29T15:27:51;21.40;99.90
20690;DHT22;10504;48.762;8.996;2022-07-29T15:30:17;21.40;99.90
20690;DHT22;10504;48.762;8.996;2022-07-29T15:32:43;21.40;99.90
20690;DHT22;10504;48.762;8.996;2022-07-29T15:35:09;21.30;99.90
20690;DHT22;10504;48.762;8.996;2022-07-29T15:37:39;21.30;99.90
20690;DHT22;10504;48.762;8.996;2022-07-29T15:40:06;21.40;99.90
20690;DHT22;10504;48.762;8.996;2022-07-29T15:42:31;21.30;99.90
20690;DHT22;10504;48.762;8.996;2022-07-29T15:44:57;21.30;99.90
20690;DHT22;10504;48.762;8.996;2022-07-29T15:47:28;21.30;99.90
20690;DHT22;10504;48.762;8.996;2022-07-29T15:49:54;21.20;99.90
20690;DHT22;10504;48.762;8.996;2022-07-29T15:52:20;21.20;99.90
20690;DHT22;10504;48.762;8.996;2022-07-29T15:54:46;21.20;99.90
20690;DHT22;10504;48.762;8.996;2022-07-29T15:57:12;21.20;99.90
20690;DHT22;10504;48.762;8.996;2022-07-29T15:59:38;21.20;99.90
20690;DHT22;10504;48.762;8.996;2022-07-29T16:02:04;21.20;99.90
20690;DHT22;10504;48.762;8.996;2022-07-29T16:04:30;21.20;99.90
20690;DHT22;10504;48.762;8.996;2022-07-29T16:06:56;21.20;99.90
20690;DHT22;10504;48.762;8.996;2022-07-29T16:09:22;21.10;99.90
20690;DHT22;10504;48.762;8.996;2022-07-29T16:11:48;21.10;99.90
20690;DHT22;10504;48.762;8.996;2022-07-29T16:14:16;21.10;99.90
20690;DHT22;10504;48.762;8.996;2022-07-29T16:16:42;21.10;99.90
20690;DHT22;10504;48.762;8.996;2022-07-29T16:19:08;21.00;99.90
20690;DHT22;10504;48.762;8.996;2022-07-29T16:21:37;21.00;99.90
20690;DHT22;10504;48.762;8.996;2022-07-29T16:24:04;21.00;99.90
20690;DHT22;10504;48.762;8.996;2022-07-29T16:26:30;21.00;99.90
20690;DHT22;10504;48.762;8.996;2022-07-29T16:28:55;21.00;99.90
20690;DHT22;10504;48.762;8.996;2022-07-29T16:31:21;20.90;99.90
20690;DHT22;10504;48.762;8.996;2022-07-29T16:33:51;20.90;99.90
20690;DHT22;10504;48.762;8.996;2022-07-29T16:36:17;20.90;99.90
20690;DHT22;10504;48.762;8.996;2022-07-29T16:38:43;20.90;99.90
20690;DHT22;10504;48.762;8.996;2022-07-29T16:41:09;20.90;99.90
20690;DHT22;10504;48.762;8.996;2022-07-29T16:43:35;20.90;99.90
20690;DHT22;10504;48.762;8.996;2022-07-29T16:46:01;20.80;99.90
20690;DHT22;10504;48.762;8.996;2022-07-29T16:48:27;20.80;99.90
20690;DHT22;10504;48.762;8.996;2022-07-29T16:50:52;20.80;99.90
20690;DHT22;10504;48.762;8.996;2022-07-29T16:53:18;20.80;99.90
20690;DHT22;10504;48.762;8.996;2022-07-29T16:55:44;20.90;99.90
20690;DHT22;10504;48.762;8.996;2022-07-29T16:58:10;20.90;99.90
20690;DHT22;10504;48.762;8.996;2022-07-29T17:00:36;20.80;99.90